Terminal Aerodrome Forecast
Issued by NWS Blacksburg, VA

Home | Current Version | Previous Version | Text Only | Print | Product List | Glossary On
Versions: 1 2 3 4 5 6 7 8 9 10 11 12
000
FTUS41 KRNK 290538
TAFDAN
TAF
KDAN 290538Z 2906/3006 00000KT P6SM SCT045 OVC130
     FM291000 05003KT P6SM OVC040
     FM291300 07004KT P6SM -RA SCT015 OVC035
     FM291800 07006KT 4SM RA BR OVC030
     FM292300 35004KT 6SM -RA BR OVC030=

USA.gov is the U.S. government's official web portal to all federal, state and local government web resources and services.